createdAt,value
2023-09-10T00:07:06.520Z,81.71
2023-09-10T00:17:11.656Z,82.85
2023-09-10T00:27:15.244Z,83.09
2023-09-10T00:37:19.545Z,83.39
2023-09-10T00:47:22.864Z,83.40
2023-09-10T00:57:27.952Z,83.49
2023-09-10T01:07:31.274Z,84.82
2023-09-10T01:17:44.056Z,83.88
2023-09-10T01:27:51.149Z,84.96
2023-09-10T01:38:00.626Z,86.29
2023-09-10T01:48:06.081Z,85.83
2023-09-10T01:58:09.293Z,86.28
2023-09-10T02:08:16.319Z,86.95
2023-09-10T02:18:19.614Z,85.93
2023-09-10T02:28:26.273Z,87.12
2023-09-10T02:38:29.324Z,87.75
2023-09-10T02:48:33.638Z,88.23
2023-09-10T02:58:36.827Z,88.01
2023-09-10T03:08:42.761Z,87.32
2023-09-10T03:18:47.006Z,87.52
2023-09-10T03:28:51.619Z,88.51
2023-09-10T03:38:55.187Z,88.21
2023-09-10T03:48:59.637Z,88.47
2023-09-10T03:59:03.194Z,89.51
2023-09-10T04:09:08.525Z,89.33
2023-09-10T04:19:11.671Z,90.30
2023-09-10T04:29:15.978Z,90.27
2023-09-10T04:39:20.688Z,90.53
2023-09-10T04:49:26.340Z,91.10
2023-09-10T04:59:29.413Z,91.04
2023-09-10T05:09:34.148Z,92.01
2023-09-10T05:19:39.851Z,92.73
2023-09-10T05:29:45.981Z,94.49
2023-09-10T05:39:49.251Z,93.74
2023-09-10T05:49:54.720Z,93.74
2023-09-10T05:59:58.932Z,96.50
2023-09-10T06:10:07.993Z,94.68
2023-09-10T06:20:12.515Z,90.94
2023-09-10T06:30:17.107Z,88.76
2023-09-10T06:40:20.475Z,87.09
2023-09-10T06:50:25.776Z,85.02
2023-09-10T07:00:29.036Z,84.12
2023-09-10T07:10:34.779Z,82.97
2023-09-10T07:20:37.925Z,81.93
2023-09-10T07:30:44.228Z,79.88
2023-09-10T07:40:48.965Z,78.20
2023-09-10T07:50:57.348Z,74.68
2023-09-10T08:01:00.512Z,71.71
2023-09-10T08:11:05.308Z,71.32
2023-09-10T08:21:11.108Z,70.91
2023-09-10T08:31:15.664Z,70.22
2023-09-10T08:41:26.366Z,67.28
2023-09-10T08:51:32.724Z,66.03
2023-09-10T09:01:38.175Z,65.51
2023-09-10T09:11:44.175Z,63.07
2023-09-10T09:21:51.598Z,60.70
2023-09-10T09:31:56.095Z,60.49
2023-09-10T09:41:59.248Z,61.46
2023-09-10T09:52:03.732Z,60.89
2023-09-10T10:02:07.150Z,57.28
2023-09-10T10:12:12.076Z,51.68
2023-09-10T10:22:18.866Z,48.49
2023-09-10T10:32:28.878Z,47.37
2023-09-10T10:42:42.790Z,47.37
2023-09-10T10:52:56.703Z,41.94
2023-09-10T11:03:12.338Z,39.46
2023-09-10T11:13:19.322Z,38.95
2023-09-10T11:23:24.638Z,38.80
2023-09-10T11:33:33.727Z,38.54
2023-09-10T11:43:39.767Z,34.81
2023-09-10T11:53:44.372Z,33.34
2023-09-10T12:03:48.339Z,35.22
2023-09-10T12:13:53.751Z,38.28
2023-09-10T12:23:56.942Z,40.26
2023-09-10T12:34:02.632Z,38.92
2023-09-10T12:44:08.134Z,39.56
2023-09-10T12:54:13.547Z,40.97
2023-09-10T13:04:18.201Z,41.47
2023-09-10T13:14:23.013Z,41.53
2023-09-10T13:24:26.058Z,40.39
2023-09-10T13:34:30.521Z,41.89
2023-09-10T13:44:33.650Z,41.77
2023-09-10T13:54:38.369Z,42.72
2023-09-10T14:04:41.505Z,42.17
2023-09-10T14:24:49.510Z,42.21
2023-09-10T14:34:54.001Z,44.33
2023-09-10T14:44:57.120Z,43.00
2023-09-10T14:55:01.436Z,43.26
2023-09-10T15:05:04.833Z,44.02
2023-09-10T15:15:11.669Z,44.07
2023-09-10T15:25:14.554Z,43.98
2023-09-10T15:35:19.245Z,44.97
2023-09-10T15:45:22.400Z,44.68
2023-09-10T15:55:26.772Z,44.08
2023-09-10T16:05:29.617Z,45.25
2023-09-10T16:15:34.901Z,45.51
2023-09-10T16:25:38.685Z,46.67
2023-09-10T16:35:43.775Z,47.62
2023-09-10T16:45:46.972Z,47.54
2023-09-10T16:55:55.215Z,48.15
2023-09-10T17:05:58.999Z,48.96
2023-09-10T17:16:04.267Z,49.68
2023-09-10T17:26:08.866Z,50.52
2023-09-10T17:36:13.422Z,51.87
2023-09-10T17:46:16.383Z,53.52
2023-09-10T17:56:20.873Z,55.36
2023-09-10T18:06:23.957Z,57.60
2023-09-10T18:16:28.510Z,59.06
2023-09-10T18:26:31.813Z,59.80
2023-09-10T18:36:36.269Z,62.29
2023-09-10T18:46:39.443Z,62.04
2023-09-10T18:56:44.250Z,62.97
2023-09-10T19:06:47.255Z,65.10
2023-09-10T19:16:51.799Z,65.24
2023-09-10T19:26:54.855Z,66.67
2023-09-10T19:36:59.809Z,67.45
2023-09-10T19:47:02.939Z,69.40
2023-09-10T19:57:07.584Z,70.48
2023-09-10T20:07:11.783Z,70.99
2023-09-10T20:17:16.206Z,73.20
2023-09-10T20:27:19.237Z,74.64
2023-09-10T20:37:23.637Z,74.87
2023-09-10T20:47:27.177Z,75.18
2023-09-10T20:57:31.554Z,77.14
2023-09-10T21:07:34.738Z,77.80
2023-09-10T21:17:39.665Z,79.43
2023-09-10T21:27:42.775Z,80.29
2023-09-10T21:37:47.226Z,79.92
2023-09-10T21:47:50.792Z,80.73
2023-09-10T21:57:57.705Z,81.53
2023-09-10T22:08:00.818Z,81.65
2023-09-10T22:18:05.504Z,81.75
2023-09-10T22:28:08.718Z,81.91
2023-09-10T22:38:13.859Z,82.75
2023-09-10T22:48:17.199Z,83.91
2023-09-10T22:58:21.593Z,83.67
2023-09-10T23:08:24.710Z,83.70
2023-09-10T23:18:30.366Z,83.77
2023-09-10T23:28:33.298Z,84.30
2023-09-10T23:38:37.758Z,85.14
2023-09-10T23:48:41.127Z,85.00
2023-09-10T23:58:47.265Z,85.40
